Airfield :
LOGIN :

Register | Disclaimer

   EN    FR    IT 

 










Legend :    VFR   Marginal VFR   IFR   Intensive IFR   Very Intensive IFR
Visi :
Ceiling :
>= 8 km
>= 3000ft
5 to 8 km
1000 to 3000 ft
1500m to 5 km
500 to 1000 ft
800 to 1500m
200 to 500 ft
< 800m
< 200 ft
Symbols :   Thunderstorms  Fog  Heavy snow  Heavy precipitations  Wind > 20 kt
SIGMETs :     Misc.  Thunderstorms  Icing  Turbulence  Mountain Waves  Volcanic Ashes






- Airport Elevation : 821 ft
- IATA code : LYS


LFLL - Lyon St Exupéry / Satolas

CURRENT METAR :
  • 211700Z 01003KT CAVOK 16/08 Q1017 NOSIG

EXPIRED METARs :
  • 211630Z 02004KT CAVOK 16/08 Q1017 NOSIG
  • 211600Z 33005KT 300V020 CAVOK 17/08 Q1016 NOSIG
  • 211530Z VRB02KT 9999 FEW050 SCT073 18/06 Q1016 NOSIG
  • 211500Z 19005KT 160V250 9999 FEW050 SCT066 19/07 Q1016 NOSIG
  • 211430Z VRB03KT 9999 FEW048 SCT060 18/08 Q1016 NOSIG

TAF TAF LFLL
Valid from the 21 at 12:00 until the 22 at 18:00 UTC


211100Z 2112/2218 VRB05KT CAVOK
BECMG 2114/2117 18005KT
PROB30
TEMPO 2112/2115 27012KT -SHRA BKN040TCU
PROB40
TEMPO 2121/2204 -RA BKN040
BECMG 2203/2206 35010KT
TEMPO 2204/2212 BKN025
TEMPO 2204/2206 VRB03KT
PROB30
TEMPO 2204/2209 BKN009



MET'MAP, your aeronautical weather chart ! - Copyright ORBIFLY December 2007 - Disclaimer

ORBIFLY MET'MAP TEAM :

Programming & Development : Alexandra Zaïnal
Concept & original design : Baudouin d'Aumeries
Assistance for programming : Marc-Olivier Méhu
Technical & hardware support : Manuel Goepfert

Contact : metmap@orbifly.com




SOURCES & CREDITS :

   NOAA